createdAt,value
2018-05-29T00:00:39.437Z,97465.69
2018-05-29T00:03:06.898Z,97459.13
2018-05-29T00:05:34.380Z,97461.81
2018-05-29T00:08:01.834Z,97453.16
2018-05-29T00:10:29.294Z,97453.89
2018-05-29T00:12:56.947Z,97444.28
2018-05-29T00:15:24.420Z,97442.91
2018-05-29T00:17:51.896Z,97442.28
2018-05-29T00:20:19.439Z,97448.86
2018-05-29T00:22:47.064Z,97450.59
2018-05-29T00:25:14.638Z,97452.12
2018-05-29T00:27:42.103Z,97449.97
2018-05-29T00:30:09.542Z,97446.44
2018-05-29T00:32:37.017Z,97446.06
2018-05-29T00:35:04.469Z,97442.56
2018-05-29T00:37:31.996Z,97440.93
2018-05-29T00:39:59.441Z,97438.48
2018-05-29T00:42:26.948Z,97437.05
2018-05-29T00:44:54.427Z,97444.47
2018-05-29T00:47:21.889Z,97443.31
2018-05-29T00:49:49.365Z,97447.73
2018-05-29T00:52:16.827Z,97444.00
2018-05-29T00:54:44.297Z,97446.95
2018-05-29T00:57:11.762Z,97448.25
2018-05-29T00:59:39.269Z,97447.31
2018-05-29T01:02:06.704Z,97450.60
2018-05-29T01:04:34.285Z,97448.37
2018-05-29T01:07:01.812Z,97450.05
2018-05-29T01:09:29.273Z,97458.04
2018-05-29T01:11:56.770Z,97459.09
2018-05-29T01:14:24.242Z,97462.22
2018-05-29T01:16:51.692Z,97459.88
2018-05-29T01:19:19.133Z,97455.35
2018-05-29T01:21:46.599Z,97459.38
2018-05-29T01:24:14.041Z,97457.77
2018-05-29T01:26:41.490Z,97457.73
2018-05-29T01:29:09.227Z,97457.55
2018-05-29T01:31:36.663Z,97469.09
2018-05-29T01:34:04.260Z,97461.14
2018-05-29T01:36:31.709Z,97465.03
2018-05-29T01:38:59.247Z,97460.61
2018-05-29T01:41:26.700Z,97466.94
2018-05-29T01:43:54.166Z,97463.55
2018-05-29T01:46:21.601Z,97467.27
2018-05-29T01:48:49.072Z,97468.27
2018-05-29T01:51:16.559Z,97464.63
2018-05-29T01:53:44.079Z,97467.37
2018-05-29T01:56:11.557Z,97466.00
2018-05-29T01:58:38.997Z,97470.67
2018-05-29T02:01:06.872Z,97468.02
2018-05-29T02:03:34.357Z,97463.23
2018-05-29T02:06:01.921Z,97465.67
2018-05-29T02:08:29.755Z,97460.34
2018-05-29T02:10:57.294Z,97465.09
2018-05-29T02:13:24.806Z,97456.42
2018-05-29T02:15:52.247Z,97456.58
2018-05-29T02:18:19.709Z,97454.30
2018-05-29T02:20:47.211Z,97457.52
2018-05-29T02:23:14.710Z,97462.91
2018-05-29T02:25:42.144Z,97460.61
2018-05-29T02:28:09.611Z,97464.97
2018-05-29T02:30:37.057Z,97462.81
2018-05-29T02:33:04.607Z,97467.86
2018-05-29T02:35:32.041Z,97476.94
2018-05-29T02:37:59.530Z,97474.34
2018-05-29T02:42:53.778Z,97478.27
2018-05-29T02:45:21.802Z,97480.03
2018-05-29T02:47:49.273Z,97484.66
2018-05-29T02:50:16.721Z,97481.13
2018-05-29T02:52:44.275Z,97487.00
2018-05-29T02:55:11.743Z,97488.85
2018-05-29T02:57:39.177Z,97498.41
2018-05-29T03:00:06.651Z,97496.50
2018-05-29T03:02:34.112Z,97499.41
2018-05-29T03:05:01.588Z,97500.45
2018-05-29T03:07:29.070Z,97505.17
2018-05-29T03:09:56.588Z,97495.53
2018-05-29T03:12:24.065Z,97492.66
2018-05-29T03:14:51.497Z,97488.75
2018-05-29T03:17:18.963Z,97499.66
2018-05-29T03:19:46.409Z,97495.00
2018-05-29T03:22:13.870Z,97493.89
2018-05-29T03:24:41.305Z,97493.98
2018-05-29T03:27:08.780Z,97494.34
2018-05-29T03:29:36.238Z,97489.05
2018-05-29T03:32:04.032Z,97483.59
2018-05-29T03:34:31.544Z,97483.02
2018-05-29T03:36:59.010Z,97482.84
2018-05-29T03:39:26.455Z,97480.33
2018-05-29T03:41:53.907Z,97482.05
2018-05-29T03:44:22.226Z,97481.91
2018-05-29T03:46:49.671Z,97484.19
2018-05-29T03:49:17.125Z,97485.37
2018-05-29T03:51:44.626Z,97492.55
2018-05-29T03:54:12.179Z,97491.16
2018-05-29T03:56:39.712Z,97490.78
2018-05-29T03:59:07.197Z,97487.73
2018-05-29T04:01:34.644Z,97480.68
2018-05-29T04:04:02.127Z,97495.86
2018-05-29T04:06:29.582Z,97497.27
2018-05-29T04:08:57.050Z,97495.88
2018-05-29T04:11:24.508Z,97501.94
2018-05-29T04:13:51.991Z,97505.16
2018-05-29T04:16:19.596Z,97502.32
2018-05-29T04:18:47.132Z,97499.86
2018-05-29T04:21:14.620Z,97498.81
2018-05-29T04:23:42.256Z,97495.74
2018-05-29T04:26:09.833Z,97500.72
2018-05-29T04:28:37.315Z,97500.41
2018-05-29T04:31:04.779Z,97507.72
2018-05-29T04:33:32.231Z,97514.03
2018-05-29T04:35:59.732Z,97514.58
2018-05-29T04:38:27.181Z,97514.89
2018-05-29T04:40:54.663Z,97509.11
2018-05-29T04:43:22.096Z,97513.00
2018-05-29T04:45:49.614Z,97515.99
2018-05-29T04:48:17.162Z,97511.65
2018-05-29T04:50:44.756Z,97501.48
2018-05-29T04:53:13.337Z,97507.65
2018-05-29T04:55:40.986Z,97501.86
2018-05-29T04:58:08.530Z,97500.50
2018-05-29T05:00:35.963Z,97504.43
2018-05-29T05:03:03.420Z,97501.97
2018-05-29T05:05:30.889Z,97503.73
2018-05-29T05:07:58.381Z,97511.21
2018-05-29T05:10:25.842Z,97522.97
2018-05-29T05:12:53.319Z,97527.59
2018-05-29T05:15:20.805Z,97528.06
2018-05-29T05:17:48.338Z,97527.27
2018-05-29T05:20:15.825Z,97528.25
2018-05-29T05:22:43.237Z,97524.06
2018-05-29T05:25:10.768Z,97527.59
2018-05-29T05:27:38.232Z,97532.12
2018-05-29T05:30:05.700Z,97533.25
2018-05-29T05:32:33.384Z,97533.35
2018-05-29T05:35:00.851Z,97533.25
2018-05-29T05:37:28.349Z,97533.89
2018-05-29T05:39:55.838Z,97535.70
2018-05-29T05:42:23.293Z,97537.22
2018-05-29T05:44:50.757Z,97534.68
2018-05-29T05:47:18.205Z,97534.39
2018-05-29T05:49:45.779Z,97534.89
2018-05-29T05:52:13.251Z,97530.97
2018-05-29T05:54:40.715Z,97529.22
2018-05-29T05:57:08.184Z,97532.05
2018-05-29T05:59:35.678Z,97533.77
2018-05-29T06:02:03.181Z,97539.36
2018-05-29T06:04:30.677Z,97531.49
2018-05-29T06:06:58.159Z,97540.60
2018-05-29T06:09:25.644Z,97542.45
2018-05-29T06:11:53.138Z,97544.86
2018-05-29T06:14:21.484Z,97538.20
2018-05-29T06:16:48.942Z,97535.53
2018-05-29T06:19:16.404Z,97536.20
2018-05-29T06:21:43.840Z,97540.55
2018-05-29T06:24:11.745Z,97541.89
2018-05-29T06:26:39.198Z,97536.06
2018-05-29T06:29:06.752Z,97535.58
2018-05-29T06:31:34.257Z,97532.09
2018-05-29T06:34:01.713Z,97531.92
2018-05-29T06:36:29.195Z,97539.67
2018-05-29T06:38:56.906Z,97542.01
2018-05-29T06:41:24.426Z,97541.59
2018-05-29T06:43:51.908Z,97547.06
2018-05-29T06:46:19.359Z,97541.63
2018-05-29T06:48:46.788Z,97549.81
2018-05-29T06:51:14.983Z,97551.94
2018-05-29T06:53:42.424Z,97546.58
2018-05-29T06:56:10.509Z,97551.34
2018-05-29T06:58:38.010Z,97547.59
2018-05-29T07:01:05.928Z,97544.58
2018-05-29T07:03:33.394Z,97545.50
2018-05-29T07:06:00.877Z,97539.52
2018-05-29T07:08:28.319Z,97540.17
2018-05-29T07:10:55.790Z,97537.48
2018-05-29T07:13:23.279Z,97541.62
2018-05-29T07:15:50.808Z,97536.91
2018-05-29T07:18:18.295Z,97545.11
2018-05-29T07:20:45.756Z,97538.28
2018-05-29T07:23:13.223Z,97538.34
2018-05-29T07:25:41.079Z,97538.36
2018-05-29T07:28:08.536Z,97540.05
2018-05-29T07:30:35.974Z,97539.28
2018-05-29T07:33:03.608Z,97537.91
2018-05-29T07:35:31.678Z,97532.59
2018-05-29T07:37:59.211Z,97533.59
2018-05-29T07:40:26.668Z,97520.95
2018-05-29T07:42:54.398Z,97517.28
2018-05-29T07:45:22.030Z,97518.48
2018-05-29T07:47:49.526Z,97523.45
2018-05-29T07:50:17.129Z,97521.89
2018-05-29T07:52:44.572Z,97525.80
2018-05-29T07:55:12.224Z,97520.55
2018-05-29T07:57:39.757Z,97524.72
2018-05-29T08:00:07.220Z,97530.56
2018-05-29T08:02:34.716Z,97531.80
2018-05-29T08:05:02.341Z,97540.63
2018-05-29T08:07:29.794Z,97542.08
2018-05-29T08:09:57.271Z,97547.45
2018-05-29T08:12:24.721Z,97547.55
2018-05-29T08:14:52.195Z,97542.80
2018-05-29T08:17:19.703Z,97538.08
2018-05-29T08:19:47.789Z,97542.98
2018-05-29T08:22:15.232Z,97543.20
2018-05-29T08:24:43.102Z,97541.03
2018-05-29T08:27:11.226Z,97532.81
2018-05-29T08:29:38.767Z,97532.61
2018-05-29T08:32:06.301Z,97521.59
2018-05-29T08:34:33.794Z,97526.14
2018-05-29T08:37:01.345Z,97522.88
2018-05-29T08:39:28.816Z,97530.11
2018-05-29T08:41:56.273Z,97525.98
2018-05-29T08:44:23.719Z,97535.58
2018-05-29T08:46:51.203Z,97533.83
2018-05-29T08:49:18.680Z,97536.33
2018-05-29T08:51:46.137Z,97536.07
2018-05-29T08:54:13.669Z,97539.02
2018-05-29T08:56:41.266Z,97540.83
2018-05-29T08:59:08.669Z,97540.52
2018-05-29T09:01:36.139Z,97539.00
2018-05-29T09:04:03.649Z,97537.80
2018-05-29T09:06:31.113Z,97536.64
2018-05-29T09:08:59.320Z,97533.73
2018-05-29T09:11:26.808Z,97530.95
2018-05-29T09:13:54.295Z,97529.25
2018-05-29T09:16:21.751Z,97533.44
2018-05-29T09:18:49.408Z,97532.13
2018-05-29T09:21:17.037Z,97534.95
2018-05-29T09:23:44.555Z,97525.72
2018-05-29T09:26:12.741Z,97522.63
2018-05-29T09:28:40.921Z,97527.95
2018-05-29T09:31:08.371Z,97531.93
2018-05-29T09:33:36.616Z,97525.47
2018-05-29T09:36:04.058Z,97518.16
2018-05-29T09:38:32.530Z,97518.12
2018-05-29T09:40:59.981Z,97521.89
2018-05-29T09:43:27.473Z,97520.72
2018-05-29T09:45:55.662Z,97519.30
2018-05-29T09:48:23.252Z,97520.47
2018-05-29T09:50:51.241Z,97517.92
2018-05-29T09:53:18.925Z,97527.21
2018-05-29T09:55:46.375Z,97518.94
2018-05-29T09:58:14.159Z,97516.54
2018-05-29T10:00:41.686Z,97513.19
2018-05-29T10:03:09.173Z,97514.09
2018-05-29T10:05:36.625Z,97508.37
2018-05-29T10:08:04.560Z,97515.70
2018-05-29T10:10:32.085Z,97511.89
2018-05-29T10:12:59.910Z,97514.91
2018-05-29T10:15:27.380Z,97509.66
2018-05-29T10:17:54.899Z,97513.54
2018-05-29T10:20:22.372Z,97510.97
2018-05-29T10:22:50.467Z,97502.88
2018-05-29T10:25:18.008Z,97503.40
2018-05-29T10:27:45.473Z,97506.16
2018-05-29T10:30:12.948Z,97501.66
2018-05-29T10:32:40.411Z,97503.64
2018-05-29T10:35:07.900Z,97510.56
2018-05-29T10:37:36.157Z,97509.83
2018-05-29T10:40:03.726Z,97516.97
2018-05-29T10:42:31.194Z,97509.51
2018-05-29T10:44:58.660Z,97512.23
2018-05-29T10:47:26.119Z,97518.25
2018-05-29T10:49:54.024Z,97511.34
2018-05-29T10:52:21.495Z,97515.08
2018-05-29T10:54:49.031Z,97506.88
2018-05-29T10:57:16.532Z,97506.34
2018-05-29T10:59:44.050Z,97506.34
2018-05-29T11:02:11.526Z,97506.06
2018-05-29T11:04:38.982Z,97501.61
2018-05-29T11:07:06.500Z,97502.59
2018-05-29T11:09:34.986Z,97498.52
2018-05-29T11:12:04.323Z,97506.06
2018-05-29T11:14:31.777Z,97507.50
2018-05-29T11:17:00.230Z,97501.45
2018-05-29T11:19:27.687Z,97501.97
2018-05-29T11:21:55.166Z,97505.36
2018-05-29T11:24:22.658Z,97503.73
2018-05-29T11:26:50.526Z,97496.79
2018-05-29T11:29:18.336Z,97503.97
2018-05-29T11:31:45.801Z,97505.89
2018-05-29T11:34:13.412Z,97497.85
2018-05-29T11:36:40.923Z,97500.63
2018-05-29T11:39:08.382Z,97501.83
2018-05-29T11:41:35.839Z,97498.45
2018-05-29T11:44:03.304Z,97501.74
2018-05-29T11:46:30.772Z,97501.48
2018-05-29T11:48:58.337Z,97497.90
2018-05-29T11:51:25.820Z,97501.56
2018-05-29T11:53:53.317Z,97500.08
2018-05-29T11:56:20.739Z,97502.61
2018-05-29T11:58:52.090Z,97500.03
2018-05-29T12:01:20.385Z,97500.42
2018-05-29T12:03:47.912Z,97499.44
2018-05-29T12:06:19.169Z,97502.13
2018-05-29T12:08:47.380Z,97501.26
2018-05-29T12:11:15.735Z,97495.03
2018-05-29T12:13:43.215Z,97492.31
2018-05-29T12:16:10.845Z,97484.39
2018-05-29T12:18:38.326Z,97488.20
2018-05-29T12:21:05.788Z,97489.41
2018-05-29T12:23:33.251Z,97487.09
2018-05-29T12:26:00.713Z,97479.56
2018-05-29T12:28:28.224Z,97487.77
2018-05-29T12:30:55.700Z,97479.72
2018-05-29T12:33:23.342Z,97480.04
2018-05-29T12:35:51.515Z,97477.66
2018-05-29T12:38:19.109Z,97470.41
2018-05-29T12:40:46.605Z,97466.05
2018-05-29T12:43:14.083Z,97468.27
2018-05-29T12:45:41.616Z,97466.14
2018-05-29T12:48:09.503Z,97462.64
2018-05-29T12:50:36.931Z,97469.05
2018-05-29T12:53:04.474Z,97474.52
2018-05-29T12:55:31.989Z,97473.59
2018-05-29T12:57:59.568Z,97474.86
2018-05-29T13:00:27.096Z,97487.02
2018-05-29T13:02:54.693Z,97481.29
2018-05-29T13:05:22.274Z,97484.64
2018-05-29T13:07:49.753Z,97490.29
2018-05-29T13:10:17.301Z,97494.50
2018-05-29T13:12:45.218Z,97494.52
2018-05-29T13:15:12.666Z,97493.73
2018-05-29T13:17:40.674Z,97482.16
2018-05-29T13:20:08.146Z,97487.41
2018-05-29T13:22:36.586Z,97479.72
2018-05-29T13:25:04.123Z,97472.11
2018-05-29T13:27:31.614Z,97481.31
2018-05-29T13:30:00.294Z,97476.63
2018-05-29T13:32:27.772Z,97488.47
2018-05-29T13:34:55.362Z,97500.04
2018-05-29T13:37:22.895Z,97505.32
2018-05-29T13:39:50.549Z,97506.14
2018-05-29T13:42:17.982Z,97494.93
2018-05-29T13:44:45.460Z,97506.38
2018-05-29T13:47:13.287Z,97512.67
2018-05-29T13:49:40.830Z,97511.83
2018-05-29T13:52:08.607Z,97492.52
2018-05-29T13:54:36.072Z,97488.19
2018-05-29T13:57:05.796Z,97484.45
2018-05-29T13:59:34.199Z,97484.19
2018-05-29T14:02:02.741Z,97488.73
2018-05-29T14:04:30.189Z,97507.50
2018-05-29T14:06:57.883Z,97514.41
2018-05-29T14:09:25.457Z,97504.92
2018-05-29T14:11:52.985Z,97495.02
2018-05-29T14:14:20.767Z,97486.22
2018-05-29T14:16:48.291Z,97499.91
2018-05-29T14:19:16.096Z,97493.86
2018-05-29T14:21:43.555Z,97482.12
2018-05-29T14:24:11.071Z,97485.02
2018-05-29T14:26:38.530Z,97489.58
2018-05-29T14:29:05.995Z,97491.92
2018-05-29T14:31:33.476Z,97493.45
2018-05-29T14:34:00.953Z,97475.76
2018-05-29T14:36:28.410Z,97462.17
2018-05-29T14:38:56.269Z,97452.78
2018-05-29T14:41:23.774Z,97463.04
2018-05-29T14:43:51.292Z,97463.57
2018-05-29T14:46:18.711Z,97454.89
2018-05-29T14:48:46.152Z,97438.22
2018-05-29T14:51:15.490Z,97426.19
2018-05-29T14:53:43.914Z,97425.63
2018-05-29T14:56:11.406Z,97441.08
2018-05-29T14:58:38.940Z,97450.52
2018-05-29T15:01:06.372Z,97460.52
2018-05-29T15:03:34.092Z,97472.81
2018-05-29T15:06:01.891Z,97487.48
2018-05-29T15:08:29.356Z,97501.08
2018-05-29T15:10:56.878Z,97502.72
2018-05-29T15:13:24.481Z,97506.92
2018-05-29T15:15:51.962Z,97502.95
2018-05-29T15:18:19.415Z,97488.26
2018-05-29T15:20:46.940Z,97491.38
2018-05-29T15:23:14.392Z,97481.50
2018-05-29T15:25:41.875Z,97482.29
2018-05-29T15:28:09.345Z,97476.84
2018-05-29T15:30:37.678Z,97471.05
2018-05-29T15:33:05.135Z,97467.41
2018-05-29T15:35:32.625Z,97463.86
2018-05-29T15:38:00.115Z,97456.75
2018-05-29T15:40:27.567Z,97464.57
2018-05-29T15:42:55.105Z,97458.84
2018-05-29T15:45:22.557Z,97446.28
2018-05-29T15:47:50.056Z,97450.20
2018-05-29T15:50:17.645Z,97451.49
2018-05-29T15:52:45.146Z,97451.95
2018-05-29T15:55:12.583Z,97450.99
2018-05-29T15:57:40.941Z,97443.64
2018-05-29T16:00:08.459Z,97440.96
2018-05-29T16:02:36.134Z,97438.05
2018-05-29T16:05:03.620Z,97432.16
2018-05-29T16:07:31.083Z,97432.92
2018-05-29T16:09:58.943Z,97437.27
2018-05-29T16:12:26.436Z,97437.28
2018-05-29T16:14:53.914Z,97436.75
2018-05-29T16:17:21.372Z,97434.30
2018-05-29T16:19:48.944Z,97440.37
2018-05-29T16:22:16.441Z,97440.20
2018-05-29T16:24:44.055Z,97434.98
2018-05-29T16:27:11.584Z,97437.94
2018-05-29T16:29:39.210Z,97440.10
2018-05-29T16:32:06.653Z,97441.89
2018-05-29T16:34:34.483Z,97438.45
2018-05-29T16:37:01.917Z,97434.02
2018-05-29T16:39:29.746Z,97430.78
2018-05-29T16:41:57.337Z,97416.77
2018-05-29T16:44:24.841Z,97410.25
2018-05-29T16:46:52.320Z,97409.45
2018-05-29T16:49:19.827Z,97405.67
2018-05-29T16:51:47.580Z,97411.55
2018-05-29T16:54:15.158Z,97414.34
2018-05-29T16:56:42.672Z,97411.98
2018-05-29T16:59:10.292Z,97413.31
2018-05-29T17:01:37.794Z,97415.03
2018-05-29T17:04:05.458Z,97418.31
2018-05-29T17:06:32.993Z,97404.44
2018-05-29T17:09:00.694Z,97397.83
2018-05-29T17:11:28.237Z,97399.50
2018-05-29T17:13:55.740Z,97406.16
2018-05-29T17:16:23.220Z,97427.38
2018-05-29T17:18:50.838Z,97428.20
2018-05-29T17:21:18.305Z,97423.41
2018-05-29T17:23:45.829Z,97424.09
2018-05-29T17:26:13.795Z,97421.34
2018-05-29T17:28:41.270Z,97424.72
2018-05-29T17:31:08.930Z,97430.87
2018-05-29T17:33:36.433Z,97431.75
2018-05-29T17:36:05.945Z,97435.64
2018-05-29T17:38:35.418Z,97437.60
2018-05-29T17:41:07.602Z,97444.42
2018-05-29T17:43:37.503Z,97446.25
2018-05-29T17:46:05.306Z,97447.97
2018-05-29T17:48:32.818Z,97449.90
2018-05-29T17:51:00.478Z,97463.33
2018-05-29T17:53:30.620Z,97476.84
2018-05-29T17:56:00.074Z,97483.94
2018-05-29T17:58:29.515Z,97490.50
2018-05-29T18:00:58.833Z,97487.63
2018-05-29T18:03:26.712Z,97490.20
2018-05-29T18:06:01.556Z,97493.56
2018-05-29T18:08:31.690Z,97496.27
2018-05-29T18:11:00.776Z,97495.84
2018-05-29T18:13:28.518Z,97492.22
2018-05-29T18:15:57.800Z,97493.17
2018-05-29T18:18:26.454Z,97485.31
2018-05-29T18:20:54.180Z,97477.08
2018-05-29T18:23:21.900Z,97482.11
2018-05-29T18:25:49.602Z,97491.41
2018-05-29T18:28:17.251Z,97485.25
2018-05-29T18:30:44.800Z,97490.59
2018-05-29T18:33:12.333Z,97496.25
2018-05-29T18:35:39.903Z,97493.61
2018-05-29T18:38:10.916Z,97495.88
2018-05-29T18:40:41.027Z,97488.02
2018-05-29T18:43:08.535Z,97493.57
2018-05-29T18:45:36.050Z,97490.97
2018-05-29T18:48:03.500Z,97487.11
2018-05-29T18:50:31.022Z,97488.89
2018-05-29T18:52:58.487Z,97496.29
2018-05-29T18:55:27.683Z,97507.66
2018-05-29T18:57:55.184Z,97504.41
2018-05-29T19:00:22.830Z,97506.20
2018-05-29T19:02:50.506Z,97510.51
2018-05-29T19:05:19.585Z,97514.02
2018-05-29T19:07:47.043Z,97516.84
2018-05-29T19:10:14.529Z,97514.53
2018-05-29T19:12:42.009Z,97518.89
2018-05-29T19:15:09.445Z,97526.94
2018-05-29T19:17:36.971Z,97524.19
2018-05-29T19:20:04.422Z,97518.89
2018-05-29T19:22:31.908Z,97515.97
2018-05-29T19:24:59.436Z,97516.13
2018-05-29T19:27:26.968Z,97522.77
2018-05-29T19:29:54.435Z,97524.70
2018-05-29T19:32:21.947Z,97529.16
2018-05-29T19:34:50.020Z,97533.64
2018-05-29T19:37:17.494Z,97532.22
2018-05-29T19:39:45.045Z,97534.75
2018-05-29T19:42:12.549Z,97540.59
2018-05-29T19:44:40.400Z,97536.99
2018-05-29T19:47:07.968Z,97538.31
2018-05-29T19:49:36.278Z,97538.07
2018-05-29T19:52:04.682Z,97541.55
2018-05-29T19:54:32.173Z,97537.42
2018-05-29T19:56:59.666Z,97524.19
2018-05-29T19:59:29.344Z,97527.81
2018-05-29T20:01:58.893Z,97518.05
2018-05-29T20:04:26.392Z,97520.92
2018-05-29T20:06:56.808Z,97516.81
2018-05-29T20:09:27.522Z,97528.71
2018-05-29T20:11:59.545Z,97529.29
2018-05-29T20:14:28.626Z,97534.26
2018-05-29T20:16:58.428Z,97533.95
2018-05-29T20:19:27.509Z,97528.61
2018-05-29T20:21:56.135Z,97527.45
2018-05-29T20:24:25.157Z,97526.45
2018-05-29T20:26:57.997Z,97526.36
2018-05-29T20:29:28.294Z,97526.39
2018-05-29T20:32:00.066Z,97531.73
2018-05-29T20:34:29.680Z,97539.06
2018-05-29T20:36:58.262Z,97535.25
2018-05-29T20:39:25.950Z,97534.00
2018-05-29T20:41:54.184Z,97534.81
2018-05-29T20:44:21.681Z,97532.63
2018-05-29T20:46:49.268Z,97535.56
2018-05-29T20:49:16.916Z,97533.64
2018-05-29T20:51:44.386Z,97528.36
2018-05-29T20:54:11.866Z,97535.50
2018-05-29T20:56:39.428Z,97531.87
2018-05-29T20:59:07.493Z,97532.52
2018-05-29T21:01:35.045Z,97525.29
2018-05-29T21:04:02.508Z,97533.09
2018-05-29T21:06:29.980Z,97538.20
2018-05-29T21:08:58.854Z,97545.05
2018-05-29T21:11:26.361Z,97546.24
2018-05-29T21:13:53.829Z,97547.42
2018-05-29T21:16:21.365Z,97546.06
2018-05-29T21:18:48.856Z,97537.39
2018-05-29T21:21:16.389Z,97543.44
2018-05-29T21:23:43.842Z,97539.25
2018-05-29T21:26:11.359Z,97536.45
2018-05-29T21:28:38.853Z,97543.23
2018-05-29T21:31:06.583Z,97539.55
2018-05-29T21:33:34.108Z,97540.27
2018-05-29T21:36:01.564Z,97549.92
2018-05-29T21:38:29.072Z,97552.61
2018-05-29T21:40:56.524Z,97544.77
2018-05-29T21:43:24.034Z,97540.09
2018-05-29T21:45:51.494Z,97540.67
2018-05-29T21:48:18.979Z,97547.46
2018-05-29T21:50:46.444Z,97543.34
2018-05-29T21:53:13.935Z,97545.67
2018-05-29T21:55:41.420Z,97541.05
2018-05-29T21:58:08.934Z,97547.67
2018-05-29T22:00:36.391Z,97538.63
2018-05-29T22:03:03.874Z,97541.51
2018-05-29T22:05:31.378Z,97540.41
2018-05-29T22:07:58.840Z,97541.55
2018-05-29T22:10:26.402Z,97539.37
2018-05-29T22:12:53.840Z,97538.85
2018-05-29T22:15:21.298Z,97538.98
2018-05-29T22:17:48.794Z,97540.16
2018-05-29T22:20:16.278Z,97537.05
2018-05-29T22:22:43.741Z,97537.48
2018-05-29T22:25:11.972Z,97535.51
2018-05-29T22:27:39.597Z,97529.55
2018-05-29T22:30:07.091Z,97537.95
2018-05-29T22:32:34.785Z,97527.22
2018-05-29T22:35:03.047Z,97516.87
2018-05-29T22:37:31.414Z,97518.72
2018-05-29T22:39:58.910Z,97522.46
2018-05-29T22:42:26.409Z,97530.03
2018-05-29T22:44:53.873Z,97527.83
2018-05-29T22:47:21.354Z,97536.50
2018-05-29T22:49:48.820Z,97532.08
2018-05-29T22:52:16.309Z,97540.78
2018-05-29T22:54:43.766Z,97539.11
2018-05-29T22:57:11.321Z,97541.84
2018-05-29T22:59:38.818Z,97545.28
2018-05-29T23:02:07.083Z,97555.66
2018-05-29T23:04:34.533Z,97546.64
2018-05-29T23:07:01.994Z,97544.78
2018-05-29T23:09:29.524Z,97551.70
2018-05-29T23:11:57.659Z,97554.37
2018-05-29T23:14:25.164Z,97560.23
2018-05-29T23:16:52.615Z,97565.27
2018-05-29T23:19:20.066Z,97571.20
2018-05-29T23:21:47.512Z,97575.09
2018-05-29T23:24:15.089Z,97582.42
2018-05-29T23:26:42.647Z,97585.39
2018-05-29T23:29:10.223Z,97585.05
2018-05-29T23:31:37.750Z,97590.16
2018-05-29T23:34:05.398Z,97586.93
2018-05-29T23:36:32.887Z,97590.02
2018-05-29T23:39:01.016Z,97588.70
2018-05-29T23:41:28.497Z,97590.59
2018-05-29T23:43:56.118Z,97587.17
2018-05-29T23:46:23.601Z,97591.95
2018-05-29T23:48:51.045Z,97583.61
2018-05-29T23:51:18.531Z,97580.98
2018-05-29T23:53:45.984Z,97583.16
2018-05-29T23:56:13.470Z,97585.88
2018-05-29T23:58:40.990Z,97590.42
